createdAt,value
2023-07-17T00:00:13.150Z,5.60
2023-07-17T00:02:41.511Z,5.03
2023-07-17T00:05:09.351Z,5.82
2023-07-17T00:07:36.127Z,5.15
2023-07-17T00:10:05.277Z,5.00
2023-07-17T00:12:32.338Z,5.30
2023-07-17T00:14:59.216Z,5.55
2023-07-17T00:17:26.073Z,5.50
2023-07-17T00:19:56.759Z,5.57
2023-07-17T00:22:25.267Z,5.45
2023-07-17T00:24:53.173Z,5.65
2023-07-17T00:27:20.845Z,5.60
2023-07-17T00:29:47.854Z,5.70
2023-07-17T00:32:15.373Z,5.80
2023-07-17T00:34:42.629Z,5.10
2023-07-17T00:37:10.062Z,5.70
2023-07-17T00:39:37.100Z,5.80
2023-07-17T00:42:04.401Z,5.68
2023-07-17T00:44:31.565Z,5.40
2023-07-17T00:46:59.560Z,5.43
2023-07-17T00:49:29.065Z,5.57
2023-07-17T00:51:57.499Z,6.18
2023-07-17T00:54:25.213Z,6.07
2023-07-17T00:56:53.634Z,5.90
2023-07-17T00:59:21.057Z,5.10
2023-07-17T01:01:48.625Z,6.20
2023-07-17T01:04:15.566Z,5.22
2023-07-17T01:06:42.941Z,5.38
2023-07-17T01:09:12.624Z,5.95
2023-07-17T01:11:39.752Z,5.30
2023-07-17T01:14:06.655Z,5.63
2023-07-17T01:16:33.584Z,5.80
2023-07-17T01:19:00.418Z,5.78
2023-07-17T01:21:30.460Z,5.35
2023-07-17T01:23:58.035Z,5.82
2023-07-17T01:26:25.220Z,5.63
2023-07-17T01:28:52.223Z,6.00
2023-07-17T01:31:20.172Z,6.40
2023-07-17T01:33:47.414Z,6.35
2023-07-17T01:36:16.342Z,6.38
2023-07-17T01:38:43.118Z,5.88
2023-07-17T01:41:09.860Z,6.38
2023-07-17T01:43:36.670Z,6.22
2023-07-17T01:46:03.677Z,6.15
2023-07-17T01:48:30.605Z,6.28
2023-07-17T01:50:57.425Z,6.70
2023-07-17T01:53:24.466Z,5.57
2023-07-17T01:55:51.391Z,5.43
2023-07-17T01:58:18.179Z,6.10
2023-07-17T02:00:45.053Z,6.53
2023-07-17T02:03:11.849Z,6.65
2023-07-17T02:05:38.649Z,6.68
2023-07-17T02:08:07.595Z,6.22
2023-07-17T02:10:34.689Z,6.65
2023-07-17T02:13:01.617Z,6.18
2023-07-17T02:15:28.483Z,6.03
2023-07-17T02:17:55.371Z,6.13
2023-07-17T02:20:22.163Z,6.57
2023-07-17T02:22:49.022Z,6.57
2023-07-17T02:25:15.924Z,6.75
2023-07-17T02:27:42.726Z,6.00
2023-07-17T02:30:10.145Z,6.43
2023-07-17T02:32:38.350Z,6.05
2023-07-17T02:35:06.144Z,6.30
2023-07-17T02:37:33.148Z,6.55
2023-07-17T02:39:59.995Z,6.22
2023-07-17T02:42:26.806Z,6.30
2023-07-17T02:44:53.598Z,6.57
2023-07-17T02:47:20.437Z,5.68
2023-07-17T02:49:47.295Z,5.53
2023-07-17T02:52:14.121Z,6.28
2023-07-17T02:54:41.039Z,6.25
2023-07-17T02:57:08.065Z,7.18
2023-07-17T02:59:34.881Z,6.75
2023-07-17T03:02:01.804Z,6.43
2023-07-17T03:04:28.726Z,6.32
2023-07-17T03:06:55.567Z,5.95
2023-07-17T03:09:22.479Z,6.20
2023-07-17T03:11:49.905Z,6.50
2023-07-17T03:14:16.696Z,6.13
2023-07-17T03:16:43.532Z,5.30
2023-07-17T03:19:11.100Z,6.53
2023-07-17T03:21:38.053Z,6.35
2023-07-17T03:24:06.224Z,6.78
2023-07-17T03:26:33.053Z,6.30
2023-07-17T03:29:00.054Z,6.38
2023-07-17T03:31:26.944Z,6.00
2023-07-17T03:33:53.786Z,6.47
2023-07-17T03:36:20.628Z,6.07
2023-07-17T03:38:47.436Z,6.50
2023-07-17T03:41:14.516Z,6.22
2023-07-17T03:43:41.331Z,6.28
2023-07-17T03:46:08.376Z,6.55
2023-07-17T03:48:35.194Z,6.00
2023-07-17T03:51:03.521Z,6.32
2023-07-17T03:53:30.582Z,6.72
2023-07-17T03:55:57.443Z,6.28
2023-07-17T03:58:24.877Z,6.63
2023-07-17T04:00:51.832Z,6.32
2023-07-17T04:03:18.779Z,6.32
2023-07-17T04:05:46.109Z,6.50
2023-07-17T04:08:12.924Z,5.82
2023-07-17T04:10:39.804Z,6.57
2023-07-17T04:13:06.774Z,7.10
2023-07-17T04:15:36.944Z,7.15
2023-07-17T04:18:03.901Z,6.63
2023-07-17T04:20:30.740Z,6.65
2023-07-17T04:22:57.507Z,6.70
2023-07-17T04:25:24.385Z,6.78
2023-07-17T04:27:51.449Z,5.85
2023-07-17T04:30:18.382Z,6.60
2023-07-17T04:32:45.270Z,7.07
2023-07-17T04:35:12.209Z,7.60
2023-07-17T04:37:39.068Z,6.88
2023-07-17T04:40:06.693Z,7.10
2023-07-17T04:42:33.502Z,7.10
2023-07-17T04:45:00.350Z,6.50
2023-07-17T04:47:27.213Z,7.18
2023-07-17T04:49:54.826Z,7.45
2023-07-17T04:52:21.606Z,7.03
2023-07-17T04:54:48.487Z,7.45
2023-07-17T04:57:15.419Z,7.68
2023-07-17T04:59:42.251Z,7.45
2023-07-17T05:02:09.083Z,6.95
2023-07-17T05:04:35.864Z,7.10
2023-07-17T05:07:02.788Z,7.72
2023-07-17T05:09:29.634Z,7.93
2023-07-17T05:11:56.764Z,6.63
2023-07-17T05:14:23.660Z,6.55
2023-07-17T05:16:50.533Z,7.43
2023-07-17T05:19:17.433Z,7.05
2023-07-17T05:21:44.293Z,7.32
2023-07-17T05:24:11.350Z,7.43
2023-07-17T05:26:38.158Z,6.97
2023-07-17T05:29:05.918Z,7.45
2023-07-17T05:31:32.852Z,6.72
2023-07-17T05:33:59.785Z,6.82
2023-07-17T05:36:26.604Z,6.65
2023-07-17T05:38:53.407Z,6.10
2023-07-17T05:41:20.368Z,6.32
2023-07-17T05:43:47.426Z,7.15
2023-07-17T05:46:14.399Z,7.10
2023-07-17T05:48:41.224Z,6.38
2023-07-17T05:51:10.011Z,7.35
2023-07-17T05:53:37.174Z,6.90
2023-07-17T05:56:04.244Z,7.82
2023-07-17T05:58:31.260Z,8.85
2023-07-17T06:00:58.044Z,8.25
2023-07-17T06:03:25.223Z,8.75
2023-07-17T06:05:52.772Z,7.85
2023-07-17T06:08:19.592Z,8.25
2023-07-17T06:10:47.455Z,7.40
2023-07-17T06:13:16.216Z,9.90
2023-07-17T06:15:44.940Z,8.40
2023-07-17T06:18:11.801Z,9.45
2023-07-17T06:20:38.965Z,9.77
2023-07-17T06:23:05.839Z,9.50
2023-07-17T06:25:32.664Z,8.13
2023-07-17T06:27:59.443Z,10.30
2023-07-17T06:30:26.309Z,8.60
2023-07-17T06:32:53.148Z,8.50
2023-07-17T06:35:20.106Z,8.15
2023-07-17T06:37:47.004Z,6.88
2023-07-17T06:40:14.451Z,6.72
2023-07-17T06:42:41.520Z,8.07
2023-07-17T06:45:09.065Z,8.77
2023-07-17T06:47:37.761Z,8.77
2023-07-17T06:50:05.925Z,9.75
2023-07-17T06:52:33.035Z,9.05
2023-07-17T06:57:29.607Z,8.77
2023-07-17T06:59:56.427Z,9.35
2023-07-17T07:02:23.245Z,9.27
2023-07-17T07:04:50.120Z,7.88
2023-07-17T07:07:18.732Z,8.30
2023-07-17T07:09:46.496Z,7.47
2023-07-17T07:12:13.436Z,8.35
2023-07-17T07:14:40.299Z,8.00
2023-07-17T07:17:07.172Z,7.65
2023-07-17T07:19:35.158Z,8.77
2023-07-17T07:22:02.010Z,9.32
2023-07-17T07:24:28.806Z,8.40
2023-07-17T07:26:55.712Z,7.78
2023-07-17T07:29:22.542Z,7.80
2023-07-17T07:31:49.377Z,6.78
2023-07-17T07:34:16.392Z,7.70
2023-07-17T07:36:43.266Z,7.68
2023-07-17T07:39:10.078Z,7.50
2023-07-17T07:41:37.712Z,8.52
2023-07-17T07:44:05.398Z,8.60
2023-07-17T07:46:32.501Z,7.18
2023-07-17T07:48:59.470Z,8.10
2023-07-17T07:51:26.308Z,7.50
2023-07-17T07:53:53.210Z,6.90
2023-07-17T07:56:20.350Z,6.95
2023-07-17T07:58:47.413Z,7.85
2023-07-17T08:01:14.246Z,7.80
2023-07-17T08:03:41.754Z,8.23
2023-07-17T08:06:08.757Z,8.13
2023-07-17T08:08:35.692Z,7.40
2023-07-17T08:11:05.268Z,7.18
2023-07-17T08:13:32.350Z,6.65
2023-07-17T08:15:59.360Z,7.30
2023-07-17T08:18:26.239Z,7.57
2023-07-17T08:20:55.329Z,7.65
2023-07-17T08:23:28.326Z,7.20
2023-07-17T08:25:55.699Z,6.55
2023-07-17T08:28:22.715Z,6.88
2023-07-17T08:30:53.335Z,7.13
2023-07-17T08:33:21.324Z,6.65
2023-07-17T08:35:48.492Z,7.65
2023-07-17T08:38:15.520Z,6.95
2023-07-17T08:40:42.740Z,6.97
2023-07-17T08:43:09.920Z,7.13
2023-07-17T08:45:37.557Z,7.18
2023-07-17T08:48:05.351Z,6.70
2023-07-17T08:50:33.379Z,7.45
2023-07-17T08:53:00.306Z,7.45
2023-07-17T08:55:33.436Z,10.70
2023-07-17T08:58:04.314Z,6.80
2023-07-17T09:00:32.387Z,7.22
2023-07-17T09:02:59.744Z,7.35
2023-07-17T09:05:26.787Z,7.82
2023-07-17T09:07:53.639Z,7.65
2023-07-17T09:10:24.805Z,7.35
2023-07-17T09:13:00.921Z,8.20
2023-07-17T09:15:29.438Z,7.43
2023-07-17T09:17:56.892Z,8.02
2023-07-17T09:20:23.807Z,7.75
2023-07-17T09:22:51.461Z,7.57
2023-07-17T09:25:18.408Z,8.52
2023-07-17T09:27:50.299Z,7.90
2023-07-17T09:30:20.782Z,7.10
2023-07-17T09:32:49.374Z,8.05
2023-07-17T09:35:19.371Z,8.52
2023-07-17T09:37:47.024Z,8.65
2023-07-17T09:40:17.988Z,8.45
2023-07-17T09:42:47.381Z,7.70
2023-07-17T09:45:16.222Z,7.57
2023-07-17T09:47:43.864Z,8.05
2023-07-17T09:50:10.786Z,6.88
2023-07-17T09:52:37.783Z,7.68
2023-07-17T09:55:05.008Z,6.72
2023-07-17T09:57:35.168Z,7.93
2023-07-17T10:00:18.649Z,12.95
2023-07-17T10:02:55.077Z,7.75
2023-07-17T10:05:22.147Z,8.40
2023-07-17T10:07:51.737Z,7.05
2023-07-17T10:10:19.281Z,5.05
2023-07-17T10:12:46.714Z,5.18
2023-07-17T10:15:16.113Z,5.32
2023-07-17T10:17:43.323Z,4.55
2023-07-17T10:20:13.521Z,4.70
2023-07-17T10:22:47.354Z,4.40
2023-07-17T10:25:20.315Z,4.93
2023-07-17T10:28:02.106Z,4.63
2023-07-17T10:30:38.906Z,4.32
2023-07-17T10:33:20.434Z,4.28
2023-07-17T10:35:56.292Z,4.65
2023-07-17T10:38:28.169Z,4.32
2023-07-17T10:41:26.063Z,5.00
2023-07-17T10:44:17.139Z,5.22
2023-07-17T10:46:45.388Z,4.82
2023-07-17T10:49:13.880Z,4.28
2023-07-17T10:51:45.756Z,4.80
2023-07-17T10:54:13.341Z,5.28
2023-07-17T10:56:40.222Z,5.43
2023-07-17T10:59:07.067Z,5.20
2023-07-17T11:01:34.119Z,4.95
2023-07-17T11:04:01.374Z,5.50
2023-07-17T11:06:29.072Z,4.68
2023-07-17T11:08:56.094Z,5.15
2023-07-17T11:11:23.874Z,5.32
2023-07-17T11:13:53.722Z,5.32
2023-07-17T11:16:22.902Z,5.25
2023-07-17T11:18:57.290Z,4.63
2023-07-17T11:21:26.644Z,4.90
2023-07-17T11:23:54.676Z,4.93
2023-07-17T11:26:26.769Z,4.60
2023-07-17T11:31:24.281Z,4.90
2023-07-17T11:34:05.792Z,4.00
2023-07-17T11:36:46.632Z,4.57
2023-07-17T11:39:19.221Z,4.65
2023-07-17T11:41:50.670Z,4.30
2023-07-17T11:44:31.286Z,4.70
2023-07-17T11:47:04.595Z,4.85
2023-07-17T11:49:32.135Z,4.43
2023-07-17T11:51:58.947Z,4.60
2023-07-17T11:54:38.119Z,4.50
2023-07-17T11:57:05.249Z,4.70
2023-07-17T11:59:32.425Z,4.50
2023-07-17T12:01:59.613Z,4.90
2023-07-17T12:04:33.938Z,3.90
2023-07-17T12:07:03.066Z,4.43
2023-07-17T12:09:30.362Z,4.45
2023-07-17T12:11:57.854Z,4.57
2023-07-17T12:14:24.686Z,4.63
2023-07-17T12:16:51.571Z,4.70
2023-07-17T12:19:19.612Z,4.45
2023-07-17T12:21:46.762Z,4.75
2023-07-17T12:24:16.228Z,4.75
2023-07-17T12:26:43.675Z,4.45
2023-07-17T12:29:11.116Z,4.40
2023-07-17T12:31:38.669Z,4.47
2023-07-17T12:34:05.913Z,4.15
2023-07-17T12:36:32.750Z,4.32
2023-07-17T12:39:13.073Z,4.25
2023-07-17T12:41:40.065Z,4.63
2023-07-17T12:44:06.982Z,4.70
2023-07-17T12:46:33.965Z,4.07
2023-07-17T12:49:00.922Z,4.47
2023-07-17T12:51:27.849Z,4.93
2023-07-17T12:53:54.650Z,4.40
2023-07-17T12:56:22.606Z,4.60
2023-07-17T12:58:52.407Z,4.45
2023-07-17T13:01:19.742Z,4.30
2023-07-17T13:03:47.079Z,4.40
2023-07-17T13:06:14.176Z,4.57
2023-07-17T13:08:41.622Z,4.18
2023-07-17T13:11:08.530Z,4.60
2023-07-17T13:13:35.341Z,4.28
2023-07-17T13:16:02.170Z,4.50
2023-07-17T13:18:28.990Z,4.47
2023-07-17T13:20:55.903Z,4.45
2023-07-17T13:23:22.696Z,4.60
2023-07-17T13:25:49.443Z,4.30
2023-07-17T13:28:16.256Z,4.38
2023-07-17T13:30:55.644Z,4.75
2023-07-17T13:33:30.617Z,4.63
2023-07-17T13:35:58.022Z,4.57
2023-07-17T13:38:25.451Z,4.43
2023-07-17T13:40:52.280Z,4.53
2023-07-17T13:43:19.136Z,4.10
2023-07-17T13:45:46.012Z,4.68
2023-07-17T13:48:12.846Z,4.40
2023-07-17T13:50:39.766Z,4.50
2023-07-17T13:53:06.660Z,4.65
2023-07-17T13:55:33.485Z,4.40
2023-07-17T13:58:00.221Z,4.40
2023-07-17T14:00:29.025Z,4.90
2023-07-17T14:02:56.114Z,4.45
2023-07-17T14:05:23.081Z,4.25
2023-07-17T14:07:49.944Z,4.35
2023-07-17T14:10:16.944Z,4.45
2023-07-17T14:12:43.820Z,4.63
2023-07-17T14:15:10.783Z,4.50
2023-07-17T14:17:37.710Z,4.70
2023-07-17T14:20:05.009Z,4.63
2023-07-17T14:22:31.859Z,4.68
2023-07-17T14:24:58.788Z,4.68
2023-07-17T14:27:25.546Z,4.20
2023-07-17T14:29:52.366Z,4.90
2023-07-17T14:32:19.185Z,4.13
2023-07-17T14:34:46.018Z,4.72
2023-07-17T14:37:12.866Z,4.68
2023-07-17T14:39:39.690Z,4.60
2023-07-17T14:42:06.734Z,4.28
2023-07-17T14:44:33.674Z,4.60
2023-07-17T14:47:00.780Z,3.90
2023-07-17T14:49:27.799Z,4.60
2023-07-17T14:51:54.697Z,4.40
2023-07-17T14:54:21.598Z,4.18
2023-07-17T14:56:48.421Z,4.38
2023-07-17T14:59:15.267Z,4.15
2023-07-17T15:01:42.296Z,4.38
2023-07-17T15:04:09.340Z,4.43
2023-07-17T15:06:37.273Z,4.63
2023-07-17T15:09:04.141Z,4.95
2023-07-17T15:11:31.031Z,4.30
2023-07-17T15:13:58.537Z,4.25
2023-07-17T15:16:27.496Z,4.15
2023-07-17T15:18:54.281Z,4.43
2023-07-17T15:21:21.065Z,4.20
2023-07-17T15:23:47.989Z,4.40
2023-07-17T15:26:14.846Z,4.30
2023-07-17T15:28:41.921Z,4.20
2023-07-17T15:31:13.149Z,4.63
2023-07-17T15:33:40.416Z,4.40
2023-07-17T15:36:07.597Z,4.38
2023-07-17T15:38:34.502Z,4.20
2023-07-17T15:41:01.918Z,4.32
2023-07-17T15:43:28.895Z,4.05
2023-07-17T15:45:55.760Z,3.97
2023-07-17T15:48:22.548Z,4.10
2023-07-17T15:50:49.644Z,4.60
2023-07-17T15:53:16.593Z,4.20
2023-07-17T15:55:43.421Z,4.25
2023-07-17T15:58:10.310Z,4.28
2023-07-17T16:00:37.090Z,4.63
2023-07-17T16:03:04.290Z,4.30
2023-07-17T16:05:31.348Z,3.97
2023-07-17T16:07:58.288Z,4.18
2023-07-17T16:10:25.172Z,4.45
2023-07-17T16:12:52.984Z,4.10
2023-07-17T16:15:19.814Z,4.30
2023-07-17T16:17:47.927Z,4.55
2023-07-17T16:20:14.749Z,4.55
2023-07-17T16:22:41.654Z,4.25
2023-07-17T16:25:08.705Z,4.03
2023-07-17T16:27:35.560Z,4.30
2023-07-17T16:30:02.484Z,4.32
2023-07-17T16:32:29.296Z,4.13
2023-07-17T16:34:56.106Z,4.20
2023-07-17T16:37:22.987Z,4.10
2023-07-17T16:39:49.836Z,4.13
2023-07-17T16:42:16.650Z,4.63
2023-07-17T16:44:43.467Z,4.20
2023-07-17T16:47:10.385Z,4.30
2023-07-17T16:49:37.209Z,4.45
2023-07-17T16:52:04.535Z,4.30
2023-07-17T16:54:31.458Z,4.30
2023-07-17T16:56:58.298Z,4.18
2023-07-17T16:59:26.639Z,4.57
2023-07-17T17:01:53.537Z,4.43
2023-07-17T17:04:20.541Z,4.20
2023-07-17T17:06:47.418Z,4.60
2023-07-17T17:09:16.519Z,4.47
2023-07-17T17:11:44.459Z,4.25
2023-07-17T17:14:11.442Z,4.10
2023-07-17T17:16:38.473Z,4.40
2023-07-17T17:19:05.419Z,4.20
2023-07-17T17:21:33.411Z,4.85
2023-07-17T17:24:01.076Z,4.60
2023-07-17T17:26:28.267Z,4.50
2023-07-17T17:28:55.231Z,4.07
2023-07-17T17:31:22.756Z,4.82
2023-07-17T17:33:49.874Z,4.55
2023-07-17T17:36:17.750Z,4.38
2023-07-17T17:38:44.785Z,4.43
2023-07-17T17:41:12.064Z,4.85
2023-07-17T17:43:38.874Z,4.30
2023-07-17T17:46:05.788Z,5.25
2023-07-17T17:48:32.661Z,5.20
2023-07-17T17:50:59.594Z,4.38
2023-07-17T17:53:26.817Z,4.90
2023-07-17T17:55:53.629Z,4.72
2023-07-17T17:58:20.791Z,4.70
2023-07-17T18:00:47.799Z,4.20
2023-07-17T18:03:14.726Z,4.63
2023-07-17T18:05:41.986Z,4.78
2023-07-17T18:08:09.748Z,4.57
2023-07-17T18:10:36.756Z,4.63
2023-07-17T18:13:03.584Z,4.55
2023-07-17T18:15:30.449Z,3.72
2023-07-17T18:17:58.319Z,4.97
2023-07-17T18:20:25.397Z,4.75
2023-07-17T18:22:52.348Z,5.05
2023-07-17T18:25:19.110Z,5.05
2023-07-17T18:27:46.010Z,5.10
2023-07-17T18:30:13.669Z,5.18
2023-07-17T18:32:40.535Z,5.35
2023-07-17T18:35:08.163Z,5.22
2023-07-17T18:37:35.803Z,4.93
2023-07-17T18:40:05.441Z,5.13
2023-07-17T18:42:32.257Z,4.90
2023-07-17T18:44:59.123Z,5.28
2023-07-17T18:47:25.984Z,5.30
2023-07-17T18:49:52.900Z,5.38
2023-07-17T18:52:19.812Z,4.63
2023-07-17T18:54:46.601Z,5.22
2023-07-17T18:57:13.401Z,5.30
2023-07-17T18:59:40.219Z,5.20
2023-07-17T19:02:07.017Z,5.15
2023-07-17T19:04:37.346Z,5.07
2023-07-17T19:07:04.456Z,5.32
2023-07-17T19:09:31.317Z,5.57
2023-07-17T19:11:59.973Z,5.28
2023-07-17T19:14:30.963Z,5.30
2023-07-17T19:17:02.131Z,5.10
2023-07-17T19:19:30.726Z,5.63
2023-07-17T19:21:57.541Z,5.80
2023-07-17T19:24:24.586Z,5.78
2023-07-17T19:26:51.409Z,5.80
2023-07-17T19:29:18.294Z,5.43
2023-07-17T19:31:45.200Z,5.35
2023-07-17T19:34:12.062Z,5.68
2023-07-17T19:36:39.316Z,5.50
2023-07-17T19:39:06.066Z,5.63
2023-07-17T19:41:32.860Z,5.68
2023-07-17T19:44:00.005Z,4.90
2023-07-17T19:46:27.250Z,5.60
2023-07-17T19:48:54.282Z,5.20
2023-07-17T19:51:21.887Z,5.70
2023-07-17T19:53:49.477Z,5.45
2023-07-17T19:56:16.344Z,6.00
2023-07-17T19:58:43.143Z,5.53
2023-07-17T20:01:10.052Z,7.20
2023-07-17T20:03:37.019Z,5.00
2023-07-17T20:06:04.057Z,4.43
2023-07-17T20:08:30.842Z,5.50
2023-07-17T20:10:58.840Z,5.55
2023-07-17T20:13:25.975Z,5.53
2023-07-17T20:15:53.010Z,5.55
2023-07-17T20:18:19.850Z,6.15
2023-07-17T20:20:46.892Z,5.60
2023-07-17T20:23:14.046Z,5.65
2023-07-17T20:25:41.090Z,5.60
2023-07-17T20:28:08.826Z,5.43
2023-07-17T20:30:36.399Z,4.70
2023-07-17T20:33:03.253Z,5.85
2023-07-17T20:35:30.163Z,4.40
2023-07-17T20:37:59.252Z,5.00
2023-07-17T20:40:27.725Z,4.50
2023-07-17T20:42:55.373Z,5.68
2023-07-17T20:45:46.451Z,5.85
2023-07-17T20:50:40.451Z,4.90
2023-07-17T20:53:07.262Z,5.00
2023-07-17T20:55:34.093Z,5.18
2023-07-17T20:58:00.937Z,5.57
2023-07-17T21:00:27.912Z,5.18
2023-07-17T21:02:54.806Z,5.20
2023-07-17T21:05:28.835Z,5.20
2023-07-17T21:07:55.652Z,5.47
2023-07-17T21:10:22.414Z,5.85
2023-07-17T21:12:51.433Z,5.82
2023-07-17T21:15:18.422Z,5.95
2023-07-17T21:17:45.241Z,5.40
2023-07-17T21:20:13.969Z,5.40
2023-07-17T21:22:41.242Z,5.82
2023-07-17T21:25:08.409Z,5.60
2023-07-17T21:27:35.252Z,5.65
2023-07-17T21:30:05.813Z,5.45
2023-07-17T21:32:32.782Z,5.50
2023-07-17T21:34:59.599Z,5.93
2023-07-17T21:37:26.398Z,5.70
2023-07-17T21:39:53.566Z,5.32
2023-07-17T21:42:20.405Z,5.60
2023-07-17T21:44:47.168Z,4.93
2023-07-17T21:47:13.994Z,5.65
2023-07-17T21:49:40.766Z,5.40
2023-07-17T21:52:07.922Z,5.60
2023-07-17T21:54:36.244Z,5.43
2023-07-17T21:57:03.306Z,5.85
2023-07-17T21:59:30.102Z,5.05
2023-07-17T22:01:56.920Z,5.53
2023-07-17T22:04:23.703Z,5.20
2023-07-17T22:06:50.512Z,5.45
2023-07-17T22:09:17.546Z,5.38
2023-07-17T22:11:44.334Z,5.40
2023-07-17T22:14:11.254Z,5.85
2023-07-17T22:16:38.104Z,5.53
2023-07-17T22:19:05.027Z,5.47
2023-07-17T22:21:32.216Z,5.43
2023-07-17T22:23:58.991Z,5.55
2023-07-17T22:26:25.826Z,5.22
2023-07-17T22:28:52.561Z,4.97
2023-07-17T22:31:19.740Z,5.43
2023-07-17T22:33:47.691Z,5.43
2023-07-17T22:36:14.524Z,5.32
2023-07-17T22:38:41.316Z,5.65
2023-07-17T22:41:08.139Z,5.90
2023-07-17T22:43:35.004Z,5.30
2023-07-17T22:46:01.945Z,5.63
2023-07-17T22:48:29.259Z,5.03
2023-07-17T22:50:56.788Z,5.03
2023-07-17T22:53:24.081Z,5.85
2023-07-17T22:55:51.520Z,5.57
2023-07-17T22:58:18.345Z,5.40
2023-07-17T23:00:45.510Z,5.50
2023-07-17T23:03:12.739Z,5.40
2023-07-17T23:05:39.706Z,5.10
2023-07-17T23:08:08.469Z,5.00
2023-07-17T23:10:35.524Z,4.65
2023-07-17T23:13:02.352Z,4.93
2023-07-17T23:15:29.166Z,5.05
2023-07-17T23:17:56.019Z,4.72
2023-07-17T23:20:22.848Z,5.15
2023-07-17T23:22:50.780Z,4.95
2023-07-17T23:25:19.056Z,5.03
2023-07-17T23:27:45.908Z,5.00
2023-07-17T23:30:13.660Z,4.95
2023-07-17T23:32:41.110Z,5.20
2023-07-17T23:35:08.517Z,5.82
2023-07-17T23:37:35.472Z,5.68
2023-07-17T23:40:04.525Z,5.55
2023-07-17T23:42:31.836Z,5.35
2023-07-17T23:45:02.552Z,4.70
2023-07-17T23:47:29.540Z,4.65
2023-07-17T23:49:56.559Z,4.60
2023-07-17T23:52:23.487Z,4.30
2023-07-17T23:54:50.529Z,4.15
2023-07-17T23:57:17.983Z,4.50
2023-07-17T23:59:45.378Z,4.50
